Oak Bay, Washington
Current Conditions -  °F | °C
As of 11:56 AM on Friday 28 Nov 2014 (Local Time) from KNUW Reporting Station
Moderate Rain Moderate Rain  
Wind Chill: 36°   Ceiling: 2000
Heat Index: 41°   Visibility: 3mi
Dew Point: 36°   Wind: 7mph
Humidity: 82%   Direction: 130°SE
Pressure: 29.53"   Gusts: NA
Location:  48.0288°N, 122.77°W
Report Text: KNUW 281956Z 13006KT 3SM RA OVC020 05/02 A2953 RMK AO2 SLP003 P0017 T00500022 $
Loading
Personal Weather Stations






























Interactive Weather Map New forecast layout! Learn more

10-Day Weather Forecast

Advertisements
Track Severe Weather on mobile